createdAt,value
2022-12-02T00:03:45.385Z,21.70
2022-12-02T00:08:37.430Z,18.83
2022-12-02T00:13:43.367Z,18.60
2022-12-02T00:18:35.019Z,22.10
2022-12-02T00:23:26.684Z,19.30
2022-12-02T00:28:18.943Z,20.40
2022-12-02T00:33:11.630Z,21.17
2022-12-02T00:38:04.782Z,22.67
2022-12-02T00:43:20.748Z,22.17
2022-12-02T00:48:13.023Z,22.37
2022-12-02T00:53:04.685Z,24.30
2022-12-02T00:57:56.352Z,20.37
2022-12-02T01:02:48.015Z,22.93
2022-12-02T01:07:39.746Z,22.17
2022-12-02T01:12:31.452Z,22.47
2022-12-02T01:17:23.139Z,22.23
2022-12-02T01:22:14.801Z,24.40
2022-12-02T01:27:06.588Z,22.20
2022-12-02T01:31:58.341Z,22.87
2022-12-02T01:36:50.096Z,24.97
2022-12-02T01:41:41.796Z,25.27
2022-12-02T01:46:33.995Z,24.07
2022-12-02T01:51:25.737Z,23.67
2022-12-02T01:56:17.425Z,24.37
2022-12-02T02:01:33.995Z,20.67
2022-12-02T02:06:29.952Z,28.20
2022-12-02T02:11:23.263Z,23.73
2022-12-02T02:16:15.779Z,22.80
2022-12-02T02:21:16.431Z,23.93
2022-12-02T02:26:08.237Z,24.20
2022-12-02T02:31:00.267Z,21.37
2022-12-02T02:35:52.748Z,22.90
2022-12-02T02:40:45.610Z,25.80
2022-12-02T02:45:40.951Z,21.40
2022-12-02T02:50:34.801Z,21.33
2022-12-02T02:55:28.007Z,23.57
2022-12-02T03:00:22.843Z,20.23
2022-12-02T03:05:15.147Z,21.30
2022-12-02T03:10:09.266Z,20.43
2022-12-02T03:15:04.125Z,21.27
2022-12-02T03:19:56.525Z,19.07
2022-12-02T03:24:48.509Z,19.50
2022-12-02T03:29:41.402Z,19.00
2022-12-02T03:34:33.660Z,18.97
2022-12-02T03:39:26.112Z,18.63
2022-12-02T03:44:17.995Z,23.23
2022-12-02T03:49:11.898Z,20.60
2022-12-02T03:54:04.239Z,20.67
2022-12-02T03:58:55.975Z,17.87
2022-12-02T04:03:48.122Z,18.27
2022-12-02T04:08:40.308Z,16.93
2022-12-02T04:13:32.263Z,16.93
2022-12-02T04:18:24.236Z,16.40
2022-12-02T04:23:15.911Z,18.23
2022-12-02T04:28:07.724Z,17.73
2022-12-02T04:32:59.428Z,17.03
2022-12-02T04:37:55.122Z,15.40
2022-12-02T04:42:46.936Z,17.60
2022-12-02T04:47:38.642Z,17.63
2022-12-02T04:52:30.473Z,16.70
2022-12-02T04:57:25.401Z,16.80
2022-12-02T05:02:22.272Z,22.80
2022-12-02T05:07:14.778Z,22.80
2022-12-02T05:17:13.262Z,16.60
2022-12-02T05:22:05.481Z,14.87
2022-12-02T05:26:57.825Z,18.87
2022-12-02T05:42:07.858Z,17.00
2022-12-02T05:47:09.665Z,16.13
2022-12-02T05:52:16.761Z,18.00
2022-12-02T05:57:13.479Z,16.13
2022-12-02T06:07:37.999Z,14.00
2022-12-02T06:12:30.512Z,14.77
2022-12-02T06:43:40.939Z,14.13
2022-12-02T06:48:45.684Z,16.70
2022-12-02T06:53:45.798Z,17.40
2022-12-02T07:04:50.332Z,22.13
2022-12-02T07:10:00.279Z,19.20
2022-12-02T07:36:27.312Z,16.27
2022-12-02T07:41:22.014Z,14.87
2022-12-02T07:51:23.551Z,18.40
2022-12-02T07:56:22.910Z,16.47
2022-12-02T08:01:19.283Z,22.87
2022-12-02T08:26:39.363Z,19.53
2022-12-02T08:36:39.038Z,21.47
2022-12-02T10:18:56.673Z,17.23
2022-12-02T10:29:35.057Z,14.93
2022-12-02T10:44:46.861Z,13.20
2022-12-02T11:00:27.676Z,11.77
2022-12-02T11:53:20.817Z,12.83
2022-12-02T12:39:54.102Z,13.43
2022-12-02T12:44:48.939Z,14.97
2022-12-02T15:33:59.343Z,13.43
2022-12-02T18:38:17.305Z,19.73
2022-12-02T19:34:27.446Z,22.03
2022-12-02T19:44:26.162Z,23.77
2022-12-02T20:09:52.103Z,28.30
2022-12-02T20:19:59.646Z,31.27
2022-12-02T20:50:56.488Z,33.10
2022-12-02T21:11:20.195Z,37.20
2022-12-02T21:16:20.454Z,31.10
2022-12-02T21:31:26.342Z,23.63
2022-12-02T22:07:19.146Z,19.20
2022-12-02T22:12:19.020Z,25.27
2022-12-02T22:47:54.912Z,27.60
2022-12-02T22:52:48.072Z,25.43
2022-12-02T23:07:51.791Z,25.63
2022-12-02T23:33:28.339Z,23.23
